createdAt,value
2023-05-23T00:00:12.708Z,15.8
2023-05-23T00:03:12.852Z,15.8
2023-05-23T00:06:12.075Z,15.8
2023-05-23T00:09:12.074Z,15.8
2023-05-23T00:12:12.158Z,15.8
2023-05-23T00:15:12.158Z,15.8
2023-05-23T00:18:12.320Z,15.8
2023-05-23T00:21:12.055Z,15.8
2023-05-23T00:24:12.037Z,15.8
2023-05-23T00:27:12.111Z,15.6
2023-05-23T00:30:12.271Z,15.6
2023-05-23T00:33:12.851Z,15.5
2023-05-23T00:36:12.092Z,15.5
2023-05-23T00:39:12.216Z,15.4
2023-05-23T00:42:12.212Z,15.4
2023-05-23T00:45:12.158Z,15.4
2023-05-23T00:48:12.276Z,15.4
2023-05-23T00:51:12.208Z,15.3
2023-05-23T00:54:12.099Z,15.3
2023-05-23T00:57:12.019Z,15.3
2023-05-23T01:00:12.935Z,15.3
2023-05-23T01:03:12.961Z,15.3
2023-05-23T01:06:12.180Z,15.3
2023-05-23T01:09:12.165Z,15.1
2023-05-23T01:12:12.162Z,15
2023-05-23T01:15:12.247Z,15
2023-05-23T01:18:12.455Z,15
2023-05-23T01:21:12.258Z,15
2023-05-23T01:24:12.195Z,15
2023-05-23T01:27:12.179Z,15.1
2023-05-23T01:30:12.221Z,15.3
2023-05-23T01:33:12.696Z,15.1
2023-05-23T01:36:12.232Z,15.3
2023-05-23T01:39:12.145Z,15.1
2023-05-23T01:42:12.119Z,15.1
2023-05-23T01:45:12.242Z,15.1
2023-05-23T01:48:12.580Z,15.1
2023-05-23T01:51:12.094Z,15.1
2023-05-23T01:54:12.174Z,15
2023-05-23T01:57:12.115Z,14.9
2023-05-23T02:00:12.340Z,14.7
2023-05-23T02:03:12.817Z,14.7
2023-05-23T02:06:12.164Z,14.6
2023-05-23T02:09:12.116Z,14.6
2023-05-23T02:12:12.210Z,14.6
2023-05-23T02:15:12.459Z,14.5
2023-05-23T02:18:12.489Z,14.6
2023-05-23T02:21:12.383Z,14.6
2023-05-23T02:24:12.508Z,14.6
2023-05-23T02:27:12.150Z,14.7
2023-05-23T02:30:12.269Z,14.9
2023-05-23T02:33:12.622Z,15
2023-05-23T02:36:12.111Z,15.1
2023-05-23T02:39:12.077Z,15.3
2023-05-23T02:42:12.167Z,15.4
2023-05-23T02:45:12.070Z,15.4
2023-05-23T02:48:13.195Z,15.4
2023-05-23T02:51:12.197Z,15.4
2023-05-23T02:54:12.113Z,15.4
2023-05-23T02:57:12.120Z,15.3
2023-05-23T03:00:12.317Z,15.1
2023-05-23T03:03:13.177Z,15
2023-05-23T03:06:12.225Z,15
2023-05-23T03:09:12.289Z,14.9
2023-05-23T03:12:12.341Z,14.9
2023-05-23T03:15:12.733Z,14.7
2023-05-23T03:18:12.766Z,14.7
2023-05-23T03:21:12.343Z,14.6
2023-05-23T03:24:12.476Z,14.6
2023-05-23T03:27:12.530Z,14.5
2023-05-23T03:30:12.400Z,14.5
2023-05-23T03:33:12.622Z,14.5
2023-05-23T03:36:12.375Z,14.4
2023-05-23T03:39:12.410Z,14.3
2023-05-23T03:42:12.521Z,14.3
2023-05-23T03:45:12.603Z,14.3
2023-05-23T03:48:12.802Z,14.1
2023-05-23T03:51:12.428Z,14.1
2023-05-23T03:54:12.379Z,14.3
2023-05-23T03:57:12.415Z,14.3
2023-05-23T04:00:12.955Z,14.3
2023-05-23T04:03:13.775Z,14.3
2023-05-23T04:06:14.629Z,14.4
2023-05-23T04:09:12.349Z,14.4
2023-05-23T04:12:12.312Z,14.5
2023-05-23T04:15:12.544Z,14.6
2023-05-23T04:18:12.733Z,14.7
2023-05-23T04:21:12.588Z,14.7
2023-05-23T04:24:12.209Z,14.7
2023-05-23T04:27:12.155Z,14.9
2023-05-23T04:30:12.315Z,14.9
2023-05-23T04:33:12.781Z,15
2023-05-23T04:36:12.123Z,15
2023-05-23T04:39:12.137Z,14.9
2023-05-23T04:42:13.323Z,15
2023-05-23T04:45:12.631Z,15
2023-05-23T04:48:12.783Z,15.1
2023-05-23T04:51:12.306Z,15.4
2023-05-23T04:54:12.700Z,15.6
2023-05-23T04:57:12.101Z,15.6
2023-05-23T05:00:12.466Z,15.5
2023-05-23T05:03:12.470Z,15.5
2023-05-23T05:06:12.205Z,15.6
2023-05-23T05:09:12.181Z,15.6
2023-05-23T05:12:12.194Z,15.6
2023-05-23T05:15:12.247Z,15.8
2023-05-23T05:18:12.787Z,16
2023-05-23T05:21:12.171Z,16.3
2023-05-23T05:24:12.353Z,16.4
2023-05-23T05:27:12.330Z,16.5
2023-05-23T05:30:12.648Z,16.5
2023-05-23T05:33:12.597Z,16.5
2023-05-23T05:36:12.111Z,16.3
2023-05-23T05:39:12.229Z,16.3
2023-05-23T05:42:12.505Z,16.4
2023-05-23T05:45:12.432Z,16.6
2023-05-23T05:48:12.758Z,17
2023-05-23T05:51:12.168Z,17.5
2023-05-23T05:54:12.331Z,17.8
2023-05-23T05:57:12.315Z,18
2023-05-23T06:00:12.449Z,18.3
2023-05-23T06:03:13.055Z,18.5
2023-05-23T06:06:12.276Z,18.6
2023-05-23T06:09:12.188Z,18.5
2023-05-23T06:12:12.262Z,18.3
2023-05-23T06:15:12.610Z,18.5
2023-05-23T06:18:12.549Z,18.8
2023-05-23T06:21:12.412Z,18.5
2023-05-23T06:24:12.406Z,18.1
2023-05-23T06:27:12.328Z,17.8
2023-05-23T06:30:12.689Z,17.5
2023-05-23T06:33:12.646Z,17.1
2023-05-23T06:36:12.339Z,16.9
2023-05-23T06:39:12.427Z,16.8
2023-05-23T06:42:12.151Z,16.6
2023-05-23T06:45:14.373Z,16.9
2023-05-23T06:48:12.630Z,17.1
2023-05-23T06:51:12.426Z,17.2
2023-05-23T06:54:12.102Z,17.8
2023-05-23T06:57:12.183Z,17.8
2023-05-23T07:00:12.481Z,17.8
2023-05-23T07:03:12.832Z,17.8
2023-05-23T07:06:12.434Z,17.9
2023-05-23T07:09:12.454Z,17.8
2023-05-23T07:12:12.169Z,17.8
2023-05-23T07:15:12.408Z,17.5
2023-05-23T07:18:12.682Z,17.5
2023-05-23T07:21:12.347Z,17.4
2023-05-23T07:24:12.217Z,17.2
2023-05-23T07:27:12.416Z,17.1
2023-05-23T07:30:12.212Z,17.1
2023-05-23T07:33:12.651Z,17.2
2023-05-23T07:36:12.350Z,17.2
2023-05-23T07:39:12.324Z,17.6
2023-05-23T07:42:12.137Z,17.8
2023-05-23T07:45:12.437Z,17.8
2023-05-23T07:48:12.716Z,17.6
2023-05-23T07:51:12.449Z,17.8
2023-05-23T07:54:12.707Z,17.6
2023-05-23T07:57:12.181Z,17.6
2023-05-23T08:00:12.285Z,17.5
2023-05-23T08:03:12.653Z,17.4
2023-05-23T08:06:12.162Z,17.2
2023-05-23T08:09:12.398Z,17.1
2023-05-23T08:12:13.276Z,17.1
2023-05-23T08:15:12.375Z,16.6
2023-05-23T08:18:13.289Z,16.4
2023-05-23T08:21:12.467Z,16
2023-05-23T08:24:14.075Z,15.9
2023-05-23T08:27:12.422Z,15.9
2023-05-23T08:30:12.512Z,15.9
2023-05-23T08:33:12.764Z,15.9
2023-05-23T08:36:12.256Z,15.8
2023-05-23T08:39:14.317Z,15.8
2023-05-23T08:42:12.836Z,16
2023-05-23T08:45:12.279Z,15.9
2023-05-23T08:48:12.517Z,15.9
2023-05-23T08:51:12.271Z,15.8
2023-05-23T08:54:12.217Z,15.6
2023-05-23T08:57:12.247Z,15.5
2023-05-23T09:00:15.230Z,15.4
2023-05-23T09:03:12.670Z,15.3
2023-05-23T09:06:12.509Z,15.1
2023-05-23T09:09:12.287Z,15
2023-05-23T09:12:12.271Z,14.9
2023-05-23T09:15:12.276Z,14.7
2023-05-23T09:18:12.469Z,14.7
2023-05-23T09:21:12.233Z,14.9
2023-05-23T09:24:12.116Z,15
2023-05-23T09:27:12.235Z,14.9
2023-05-23T09:30:12.492Z,14.6
2023-05-23T09:33:17.228Z,14.7
2023-05-23T09:36:12.137Z,14.6
2023-05-23T09:39:14.210Z,14.7
2023-05-23T09:42:12.237Z,14.9
2023-05-23T09:45:16.104Z,14.9
2023-05-23T09:48:12.965Z,14.7
2023-05-23T09:51:14.631Z,14.7
2023-05-23T09:54:12.236Z,14.7
2023-05-23T09:57:15.386Z,14.9
2023-05-23T10:00:12.929Z,14.9
2023-05-23T10:03:12.836Z,14.9
2023-05-23T10:06:12.098Z,14.7
2023-05-23T10:09:12.272Z,14.6
2023-05-23T10:12:12.305Z,14.6
2023-05-23T10:15:12.531Z,14.6
2023-05-23T10:18:12.665Z,14.5
2023-05-23T10:21:12.233Z,14.5
2023-05-23T10:24:12.203Z,14.5
2023-05-23T10:27:12.514Z,14.5
2023-05-23T10:30:12.194Z,14.6
2023-05-23T10:33:12.568Z,14.9
2023-05-23T10:36:12.911Z,14.6
2023-05-23T10:39:12.266Z,14.4
2023-05-23T10:42:12.191Z,14.1
2023-05-23T10:45:12.700Z,13.9
2023-05-23T10:48:12.568Z,13.9
2023-05-23T10:51:12.398Z,13.9
2023-05-23T10:54:12.245Z,14
2023-05-23T10:57:12.227Z,14.1
2023-05-23T11:00:12.356Z,14.3
2023-05-23T11:03:13.205Z,14.4
2023-05-23T11:06:12.425Z,14.3
2023-05-23T11:09:15.053Z,14.3
2023-05-23T11:12:12.292Z,14.4
2023-05-23T11:15:12.536Z,14.4
2023-05-23T11:18:12.710Z,14.6
2023-05-23T11:21:12.315Z,14.6
2023-05-23T11:24:12.355Z,14.7
2023-05-23T11:27:12.337Z,14.7
2023-05-23T11:30:12.390Z,14.9
2023-05-23T11:33:12.627Z,14.7
2023-05-23T11:36:12.243Z,14.6
2023-05-23T11:39:12.343Z,14.5
2023-05-23T11:42:12.447Z,14.5
2023-05-23T11:45:12.393Z,14.5
2023-05-23T11:48:12.461Z,14.4
2023-05-23T11:51:12.310Z,14.4
2023-05-23T11:54:12.465Z,14.5
2023-05-23T11:57:12.196Z,14.6
2023-05-23T12:00:12.538Z,14.6
2023-05-23T12:03:13.114Z,14.4
2023-05-23T12:06:15.612Z,14.1
2023-05-23T12:09:12.395Z,14
2023-05-23T12:12:12.349Z,14.1
2023-05-23T12:15:28.136Z,14
2023-05-23T12:18:15.446Z,14
2023-05-23T12:21:13.415Z,14.1
2023-05-23T12:24:12.187Z,14.4
2023-05-23T12:27:12.126Z,14.5
2023-05-23T12:30:12.357Z,14.6
2023-05-23T12:33:12.734Z,14.5
2023-05-23T12:36:12.518Z,14.4
2023-05-23T12:39:12.360Z,14.4
2023-05-23T12:42:12.192Z,14.4
2023-05-23T12:45:12.424Z,14.5
2023-05-23T12:48:12.826Z,14.7
2023-05-23T12:51:12.280Z,15
2023-05-23T12:54:12.710Z,15.6
2023-05-23T12:57:12.273Z,15.9
2023-05-23T13:00:12.912Z,15.6
2023-05-23T13:03:12.538Z,15.5
2023-05-23T13:06:12.412Z,15.5
2023-05-23T13:09:12.446Z,15.5
2023-05-23T13:12:12.305Z,15.5
2023-05-23T13:15:12.805Z,15.5
2023-05-23T13:18:13.437Z,15.5
2023-05-23T13:21:12.235Z,16.3
2023-05-23T13:24:12.205Z,17.5
2023-05-23T13:27:12.253Z,18.8
2023-05-23T13:30:12.406Z,20.9
2023-05-23T13:33:12.755Z,20.9
2023-05-23T13:36:12.500Z,21
2023-05-23T13:39:13.312Z,20.3
2023-05-23T13:42:12.509Z,19.5
2023-05-23T13:45:12.347Z,18.9
2023-05-23T13:48:12.544Z,18.5
2023-05-23T13:51:12.742Z,18.8
2023-05-23T13:54:12.248Z,19.9
2023-05-23T13:57:12.210Z,21.1
2023-05-23T14:00:12.506Z,21.5
2023-05-23T14:03:12.694Z,20.5
2023-05-23T14:06:12.336Z,19.8
2023-05-23T14:09:12.333Z,19.1
2023-05-23T14:12:12.048Z,19.6
2023-05-23T14:15:12.620Z,20
2023-05-23T14:18:12.816Z,19.9
2023-05-23T14:21:12.251Z,19.6
2023-05-23T14:24:12.207Z,19.6
2023-05-23T14:27:15.851Z,19.9
2023-05-23T14:30:12.720Z,21
2023-05-23T14:33:15.771Z,23.4
2023-05-23T14:36:12.225Z,24.7
2023-05-23T14:39:15.130Z,24
2023-05-23T14:42:12.443Z,23.5
2023-05-23T14:45:12.563Z,22.9
2023-05-23T14:48:12.564Z,22.5
2023-05-23T14:51:20.885Z,22.8
2023-05-23T14:54:12.237Z,22.6
2023-05-23T14:57:12.310Z,22.9
2023-05-23T15:00:12.532Z,23.5
2023-05-23T15:03:12.749Z,23.5
2023-05-23T15:06:12.370Z,23.5
2023-05-23T15:09:12.479Z,23.9
2023-05-23T15:12:12.185Z,24.6
2023-05-23T15:15:12.456Z,25.8
2023-05-23T15:18:15.202Z,29.8
2023-05-23T15:21:12.286Z,30.8
2023-05-23T15:24:12.305Z,28.9
2023-05-23T15:27:31.526Z,29.4
2023-05-23T15:30:12.574Z,29
2023-05-23T15:33:13.237Z,29.8
2023-05-23T15:36:12.143Z,29
2023-05-23T15:39:12.340Z,26.1
2023-05-23T15:42:12.262Z,27
2023-05-23T15:45:12.507Z,25.4
2023-05-23T15:48:12.732Z,24.3
2023-05-23T15:51:12.179Z,25.5
2023-05-23T15:54:12.725Z,25
2023-05-23T15:57:12.318Z,27.8
2023-05-23T16:00:12.267Z,28
2023-05-23T16:03:12.693Z,27
2023-05-23T16:06:12.533Z,26.5
2023-05-23T16:09:12.355Z,27.1
2023-05-23T16:12:12.282Z,27
2023-05-23T16:15:12.312Z,25.3
2023-05-23T16:18:12.504Z,24.1
2023-05-23T16:21:12.203Z,22.8
2023-05-23T16:24:12.501Z,22.9
2023-05-23T16:27:12.208Z,25.5
2023-05-23T16:30:12.419Z,27.4
2023-05-23T16:33:12.662Z,26.5
2023-05-23T16:36:12.276Z,25.8
2023-05-23T16:39:12.362Z,23.6
2023-05-23T16:42:12.506Z,22.9
2023-05-23T16:45:12.217Z,21.9
2023-05-23T16:48:13.131Z,21.4
2023-05-23T16:51:12.330Z,21.2
2023-05-23T16:54:12.197Z,21.8
2023-05-23T16:57:12.333Z,23.7
2023-05-23T17:00:12.593Z,25.9
2023-05-23T17:03:13.176Z,26.6
2023-05-23T17:06:12.273Z,26.8
2023-05-23T17:09:12.262Z,26.8
2023-05-23T17:12:12.168Z,25.8
2023-05-23T17:15:12.329Z,24.9
2023-05-23T17:18:12.686Z,24.1
2023-05-23T17:21:12.395Z,22.5
2023-05-23T17:24:12.227Z,21.1
2023-05-23T17:27:12.273Z,20.4
2023-05-23T17:30:12.399Z,19.6
2023-05-23T17:33:12.666Z,19
2023-05-23T17:36:12.318Z,18.5
2023-05-23T17:39:12.378Z,17.9
2023-05-23T17:42:12.297Z,17.5
2023-05-23T17:45:12.400Z,17
2023-05-23T17:48:13.081Z,16.5
2023-05-23T17:51:12.373Z,16.1
2023-05-23T17:54:12.315Z,15.9
2023-05-23T17:57:12.212Z,15.6
2023-05-23T18:00:12.507Z,15.4
2023-05-23T18:03:12.434Z,15.1
2023-05-23T18:06:12.387Z,14.9
2023-05-23T18:09:12.311Z,14.7
2023-05-23T18:12:12.240Z,14.5
2023-05-23T18:15:12.455Z,14.4
2023-05-23T18:18:12.541Z,14.1
2023-05-23T18:21:12.105Z,14.1
2023-05-23T18:24:12.386Z,13.9
2023-05-23T18:27:12.417Z,13.8
2023-05-23T18:30:12.197Z,13.5
2023-05-23T18:33:13.143Z,13.3
2023-05-23T18:36:12.359Z,13
2023-05-23T18:39:12.304Z,12.8
2023-05-23T18:42:12.292Z,12.5
2023-05-23T18:45:12.418Z,12.2
2023-05-23T18:48:12.889Z,11.9
2023-05-23T18:51:12.437Z,11.8
2023-05-23T18:54:12.218Z,11.5
2023-05-23T18:57:12.249Z,11.4
2023-05-23T19:00:12.357Z,11.3
2023-05-23T19:03:13.107Z,11.1
2023-05-23T19:06:12.466Z,11
2023-05-23T19:09:12.230Z,10.9
2023-05-23T19:12:12.212Z,10.8
2023-05-23T19:15:12.527Z,10.6
2023-05-23T19:18:12.565Z,10.5
2023-05-23T19:21:12.048Z,10.4
2023-05-23T19:24:12.193Z,10.3
2023-05-23T19:27:12.123Z,10.1
2023-05-23T19:30:12.132Z,10
2023-05-23T19:33:12.637Z,9.9
2023-05-23T19:36:12.082Z,9.8
2023-05-23T19:39:12.060Z,9.8
2023-05-23T19:42:12.030Z,9.6
2023-05-23T19:45:12.163Z,9.6
2023-05-23T19:48:12.630Z,9.5
2023-05-23T19:51:12.029Z,9.5
2023-05-23T19:54:12.464Z,9.4
2023-05-23T19:57:12.260Z,9.4
2023-05-23T20:00:12.288Z,9.3
2023-05-23T20:03:12.444Z,9.1
2023-05-23T20:06:12.022Z,9.1
2023-05-23T20:09:12.139Z,9
2023-05-23T20:12:12.206Z,8.9
2023-05-23T20:15:12.158Z,8.8
2023-05-23T20:18:12.920Z,8.8
2023-05-23T20:21:16.015Z,8.6
2023-05-23T20:24:12.136Z,8.5
2023-05-23T20:27:12.021Z,8.4
2023-05-23T20:30:12.134Z,8.3
2023-05-23T20:33:15.567Z,8.3
2023-05-23T20:36:12.153Z,8.1
2023-05-23T20:39:12.088Z,8.1
2023-05-23T20:42:12.000Z,8.1
2023-05-23T20:45:12.864Z,8.1
2023-05-23T20:48:12.471Z,8.1
2023-05-23T20:51:12.081Z,8.1
2023-05-23T20:54:12.139Z,8
2023-05-23T20:57:12.093Z,8
2023-05-23T21:00:12.206Z,8
2023-05-23T21:03:12.851Z,7.9
2023-05-23T21:06:12.128Z,7.9
2023-05-23T21:09:11.996Z,7.9
2023-05-23T21:12:12.004Z,7.7
2023-05-23T21:15:12.202Z,7.7
2023-05-23T21:18:12.414Z,7.7
2023-05-23T21:21:12.056Z,7.7
2023-05-23T21:24:12.106Z,7.7
2023-05-23T21:27:12.033Z,7.6
2023-05-23T21:30:12.530Z,7.6
2023-05-23T21:33:12.346Z,7.6
2023-05-23T21:36:12.189Z,7.6
2023-05-23T21:39:12.066Z,7.6
2023-05-23T21:42:11.986Z,7.6
2023-05-23T21:45:12.253Z,7.5
2023-05-23T21:48:12.526Z,7.4
2023-05-23T21:51:12.095Z,7.4
2023-05-23T21:54:12.073Z,7.2
2023-05-23T21:57:12.054Z,7.2
2023-05-23T22:00:13.032Z,7.2
2023-05-23T22:03:12.910Z,7.1
2023-05-23T22:06:12.028Z,7.1
2023-05-23T22:09:12.017Z,7
2023-05-23T22:12:12.036Z,7
2023-05-23T22:15:12.414Z,6.9
2023-05-23T22:18:12.459Z,6.9
2023-05-23T22:21:11.977Z,6.7
2023-05-23T22:24:12.248Z,6.7
2023-05-23T22:27:12.050Z,6.7
2023-05-23T22:30:12.431Z,6.7
2023-05-23T22:33:12.310Z,6.6
2023-05-23T22:36:12.100Z,6.7
2023-05-23T22:39:12.351Z,6.6
2023-05-23T22:42:12.184Z,6.7
2023-05-23T22:45:12.174Z,6.7
2023-05-23T22:48:12.412Z,6.7
2023-05-23T22:51:12.201Z,6.9
2023-05-23T22:54:12.221Z,6.9
2023-05-23T22:57:12.124Z,6.9
2023-05-23T23:00:12.294Z,7
2023-05-23T23:03:13.307Z,7
2023-05-23T23:06:12.115Z,7
2023-05-23T23:09:12.339Z,7
2023-05-23T23:12:12.167Z,7.1
2023-05-23T23:15:12.180Z,7.1
2023-05-23T23:18:12.766Z,7.2
2023-05-23T23:21:12.109Z,7.4
2023-05-23T23:24:12.444Z,7.4
2023-05-23T23:27:12.102Z,7.5
2023-05-23T23:30:12.231Z,7.5
2023-05-23T23:33:12.357Z,7.5
2023-05-23T23:36:12.050Z,7.4
2023-05-23T23:39:12.032Z,7.5
2023-05-23T23:42:12.099Z,7.5
2023-05-23T23:45:12.177Z,7.5
2023-05-23T23:48:12.535Z,7.5
2023-05-23T23:51:12.199Z,7.5
2023-05-23T23:54:12.115Z,7.4
2023-05-23T23:57:12.133Z,7.4
